createdAt,value
2019-01-25T00:00:37.370Z,13.80
2019-01-25T00:03:10.302Z,12.93
2019-01-25T00:05:37.341Z,11.93
2019-01-25T00:08:06.253Z,15.80
2019-01-25T00:10:35.099Z,18.33
2019-01-25T00:13:03.949Z,13.77
2019-01-25T00:15:32.694Z,4.67
2019-01-25T00:18:02.014Z,16.50
2019-01-25T00:20:30.675Z,13.07
2019-01-25T00:22:59.418Z,14.50
2019-01-25T00:25:28.399Z,16.52
2019-01-25T00:27:57.158Z,15.43
2019-01-25T00:30:25.822Z,15.67
2019-01-25T00:32:54.804Z,14.47
2019-01-25T00:35:23.687Z,14.80
2019-01-25T00:37:52.358Z,13.93
2019-01-25T00:40:22.215Z,16.70
2019-01-25T00:42:51.812Z,16.73
2019-01-25T00:45:20.877Z,13.90
2019-01-25T00:47:49.726Z,11.87
2019-01-25T00:50:19.156Z,10.87
2019-01-25T00:52:48.613Z,10.90
2019-01-25T00:55:17.399Z,14.03
2019-01-25T00:57:46.221Z,10.13
2019-01-25T01:00:20.861Z,11.10
2019-01-25T01:02:50.051Z,16.13
2019-01-25T01:05:19.388Z,14.73
2019-01-25T01:07:48.748Z,11.07
2019-01-25T01:10:17.585Z,13.87
2019-01-25T01:12:46.738Z,11.67
2019-01-25T01:15:15.766Z,10.47
2019-01-25T01:17:44.934Z,13.87
2019-01-25T01:20:15.501Z,15.00
2019-01-25T01:22:44.701Z,14.70
2019-01-25T01:25:14.436Z,13.00
2019-01-25T01:27:43.127Z,15.07
2019-01-25T01:30:20.931Z,15.40
2019-01-25T01:32:49.759Z,13.27
2019-01-25T01:35:18.574Z,15.70
2019-01-25T01:37:48.406Z,15.03
2019-01-25T01:40:22.013Z,17.53
2019-01-25T01:42:49.784Z,15.20
2019-01-25T01:45:18.806Z,15.00
2019-01-25T01:47:47.732Z,13.37
2019-01-25T01:50:16.977Z,13.63
2019-01-25T01:52:48.005Z,12.57
2019-01-25T01:55:16.842Z,14.37
2019-01-25T01:57:45.737Z,16.67
2019-01-25T02:00:33.889Z,15.67
2019-01-25T02:03:02.778Z,15.50
2019-01-25T02:05:31.684Z,16.53
2019-01-25T02:08:00.846Z,15.77
2019-01-25T02:10:29.908Z,14.27
2019-01-25T02:12:58.996Z,15.10
2019-01-25T02:15:28.167Z,14.93
2019-01-25T02:17:56.870Z,16.30
2019-01-25T02:20:27.662Z,13.90
2019-01-25T02:22:56.664Z,12.33
2019-01-25T02:25:25.454Z,16.43
2019-01-25T02:27:54.335Z,17.03
2019-01-25T02:30:24.137Z,16.07
2019-01-25T02:32:52.915Z,14.97
2019-01-25T02:35:21.586Z,16.17
2019-01-25T02:37:50.522Z,13.23
2019-01-25T02:40:21.381Z,12.30
2019-01-25T02:42:50.221Z,14.57
2019-01-25T02:45:20.906Z,13.47
2019-01-25T02:47:49.665Z,14.77
2019-01-25T02:50:19.040Z,14.50
2019-01-25T02:52:47.949Z,13.00
2019-01-25T02:55:16.950Z,16.53
2019-01-25T02:57:45.810Z,16.03
2019-01-25T03:00:22.980Z,15.47
2019-01-25T03:02:52.066Z,16.57
2019-01-25T03:05:21.561Z,14.53
2019-01-25T03:07:50.797Z,14.85
2019-01-25T03:10:28.191Z,15.47
2019-01-25T03:12:50.938Z,13.70
2019-01-25T03:15:21.768Z,14.20
2019-01-25T03:17:50.850Z,13.90
2019-01-25T03:20:20.074Z,15.83
2019-01-25T03:22:49.110Z,13.47
2019-01-25T03:25:19.970Z,13.97
2019-01-25T03:27:49.003Z,14.53
2019-01-25T03:30:20.075Z,15.33
2019-01-25T03:32:49.189Z,14.57
2019-01-25T03:35:19.418Z,12.57
2019-01-25T03:37:48.999Z,15.23
2019-01-25T03:40:19.896Z,14.57
2019-01-25T03:42:48.857Z,17.57
2019-01-25T03:45:18.190Z,15.37
2019-01-25T03:47:47.128Z,15.97
2019-01-25T03:50:18.820Z,15.17
2019-01-25T03:52:47.579Z,14.13
2019-01-25T03:55:16.720Z,13.40
2019-01-25T03:57:45.470Z,17.67
2019-01-25T04:00:17.313Z,14.33
2019-01-25T04:02:46.017Z,13.77
2019-01-25T04:05:15.206Z,16.80
2019-01-25T04:07:44.535Z,17.73
2019-01-25T04:10:15.277Z,16.20
2019-01-25T04:12:43.948Z,16.70
2019-01-25T04:15:15.714Z,15.43
2019-01-25T04:17:44.442Z,15.47
2019-01-25T04:20:14.562Z,15.37
2019-01-25T04:22:43.336Z,16.90
2019-01-25T04:25:14.615Z,14.27
2019-01-25T04:27:43.307Z,16.10
2019-01-25T04:30:15.123Z,13.93
2019-01-25T04:32:44.195Z,15.53
2019-01-25T04:35:13.433Z,15.40
2019-01-25T04:37:42.431Z,16.20
2019-01-25T04:40:15.846Z,16.47
2019-01-25T04:42:44.654Z,17.43
2019-01-25T04:45:16.246Z,17.10
2019-01-25T04:47:45.175Z,17.00
2019-01-25T04:50:16.142Z,16.50
2019-01-25T04:52:44.926Z,17.90
2019-01-25T04:55:22.096Z,15.53
2019-01-25T04:57:51.005Z,15.60
2019-01-25T05:00:21.104Z,16.50
2019-01-25T05:03:00.172Z,17.70
2019-01-25T05:05:29.326Z,17.70
2019-01-25T05:08:16.085Z,18.47
2019-01-25T05:10:45.097Z,18.97
2019-01-25T05:13:13.962Z,18.83
2019-01-25T05:15:42.949Z,18.40
2019-01-25T05:18:11.835Z,19.67
2019-01-25T05:20:40.587Z,18.70
2019-01-25T05:23:09.636Z,17.87
2019-01-25T05:25:38.507Z,33.73
2019-01-25T05:28:12.579Z,15.93
2019-01-25T05:30:50.375Z,17.57
2019-01-25T05:33:19.531Z,17.17
2019-01-25T05:35:48.276Z,17.33
2019-01-25T05:38:16.987Z,16.07
2019-01-25T05:40:45.662Z,17.97
2019-01-25T05:43:14.582Z,15.60
2019-01-25T05:45:44.444Z,16.82
2019-01-25T05:48:13.156Z,16.47
2019-01-25T05:50:42.851Z,17.07
2019-01-25T05:53:11.599Z,17.47
2019-01-25T05:55:40.560Z,18.10
2019-01-25T05:58:09.551Z,16.53
2019-01-25T06:00:40.474Z,16.03
2019-01-25T06:03:13.677Z,18.27
2019-01-25T06:05:42.422Z,18.20
2019-01-25T06:08:28.990Z,16.57
2019-01-25T06:10:59.039Z,17.40
2019-01-25T06:13:28.307Z,20.63
2019-01-25T06:15:57.389Z,18.63
2019-01-25T06:18:26.144Z,18.33
2019-01-25T06:20:55.653Z,18.03
2019-01-25T06:23:25.063Z,18.60
2019-01-25T06:25:55.224Z,16.20
2019-01-25T06:28:24.070Z,16.63
2019-01-25T06:30:53.419Z,20.03
2019-01-25T06:33:22.247Z,18.73
2019-01-25T06:35:51.135Z,16.47
2019-01-25T06:38:20.279Z,16.47
2019-01-25T06:40:49.106Z,19.43
2019-01-25T06:43:18.020Z,18.10
2019-01-25T06:45:46.894Z,16.67
2019-01-25T06:48:15.777Z,17.47
2019-01-25T06:50:44.545Z,17.93
2019-01-25T06:53:13.831Z,17.80
2019-01-25T06:55:45.531Z,21.10
2019-01-25T06:58:24.530Z,19.30
2019-01-25T07:00:58.954Z,19.03
2019-01-25T07:03:27.883Z,17.70
2019-01-25T07:05:56.642Z,18.97
2019-01-25T07:08:25.355Z,17.37
2019-01-25T07:10:54.306Z,18.10
2019-01-25T07:13:23.071Z,15.97
2019-01-25T07:15:51.764Z,16.60
2019-01-25T07:18:20.442Z,15.97
2019-01-25T07:20:49.270Z,16.33
2019-01-25T07:23:18.155Z,15.53
2019-01-25T07:25:46.862Z,13.53
2019-01-25T07:28:15.589Z,15.27
2019-01-25T07:30:44.257Z,15.90
2019-01-25T07:33:12.976Z,17.17
2019-01-25T07:35:41.676Z,16.57
2019-01-25T07:38:10.815Z,17.13
2019-01-25T07:40:39.755Z,13.60
2019-01-25T07:43:08.654Z,14.87
2019-01-25T07:45:37.756Z,16.33
2019-01-25T07:48:06.528Z,17.37
2019-01-25T07:50:35.362Z,13.33
2019-01-25T07:53:05.020Z,15.35
2019-01-25T07:55:34.294Z,12.80
2019-01-25T07:58:03.135Z,13.90
2019-01-25T08:00:33.283Z,13.23
2019-01-25T08:03:02.054Z,15.20
2019-01-25T08:05:31.072Z,15.77
2019-01-25T08:08:00.543Z,14.77
2019-01-25T08:10:29.684Z,14.83
2019-01-25T08:12:58.499Z,15.70
2019-01-25T08:15:27.663Z,16.47
2019-01-25T08:17:56.713Z,15.33
2019-01-25T08:20:25.931Z,14.60
2019-01-25T08:22:55.083Z,16.43
2019-01-25T08:25:24.163Z,17.03
2019-01-25T08:27:53.086Z,16.00
2019-01-25T08:30:21.935Z,15.00
2019-01-25T08:32:50.825Z,15.73
2019-01-25T08:35:20.356Z,14.80
2019-01-25T08:37:49.520Z,14.17
2019-01-25T08:40:18.390Z,15.03
2019-01-25T08:42:47.493Z,16.30
2019-01-25T08:45:16.377Z,17.17
2019-01-25T08:47:45.245Z,15.53
2019-01-25T08:50:17.053Z,18.15
2019-01-25T08:52:46.080Z,16.47
2019-01-25T08:55:15.209Z,18.33
2019-01-25T08:57:44.244Z,15.27
2019-01-25T09:00:16.084Z,16.03
2019-01-25T09:02:44.788Z,13.77
2019-01-25T09:05:13.761Z,15.40
2019-01-25T09:07:42.658Z,17.23
2019-01-25T09:10:13.870Z,14.10
2019-01-25T09:12:42.651Z,15.17
2019-01-25T09:15:14.067Z,14.57
2019-01-25T09:17:42.895Z,15.13
2019-01-25T09:20:14.651Z,15.87
2019-01-25T09:22:43.430Z,16.03
2019-01-25T09:25:12.318Z,17.43
2019-01-25T09:27:41.042Z,14.07
2019-01-25T09:30:12.822Z,16.13
2019-01-25T09:32:41.523Z,15.73
2019-01-25T09:35:10.610Z,20.07
2019-01-25T09:37:39.599Z,15.47
2019-01-25T09:40:10.770Z,16.00
2019-01-25T09:42:39.486Z,15.27
2019-01-25T09:45:09.315Z,18.30
2019-01-25T09:47:38.022Z,17.10
2019-01-25T09:50:09.025Z,16.83
2019-01-25T09:52:37.758Z,15.90
2019-01-25T09:55:08.614Z,14.80
2019-01-25T09:57:37.762Z,15.00
2019-01-25T10:00:15.730Z,14.43
2019-01-25T10:02:44.418Z,13.87
2019-01-25T10:05:13.406Z,14.07
2019-01-25T10:07:42.146Z,15.67
2019-01-25T10:10:11.320Z,14.47
2019-01-25T10:12:43.467Z,16.30
2019-01-25T10:15:13.354Z,15.23
2019-01-25T10:17:42.398Z,16.23
2019-01-25T10:20:11.358Z,15.77
2019-01-25T10:22:40.170Z,15.40
2019-01-25T10:25:09.915Z,15.30
2019-01-25T10:27:38.685Z,15.47
2019-01-25T10:30:10.299Z,13.77
2019-01-25T10:32:39.319Z,14.03
2019-01-25T10:35:09.510Z,12.77
2019-01-25T10:37:38.921Z,16.02
2019-01-25T10:40:10.672Z,14.27
2019-01-25T10:42:44.260Z,15.47
2019-01-25T10:45:14.437Z,13.63
2019-01-25T10:47:43.561Z,14.83
2019-01-25T10:50:12.890Z,13.87
2019-01-25T10:52:41.649Z,14.20
2019-01-25T10:55:11.526Z,13.40
2019-01-25T10:57:40.395Z,14.20
2019-01-25T11:00:11.910Z,14.30
2019-01-25T11:02:41.629Z,12.43
2019-01-25T11:05:13.022Z,14.40
2019-01-25T11:07:41.755Z,13.23
2019-01-25T11:10:10.738Z,12.87
2019-01-25T11:12:39.481Z,13.67
2019-01-25T11:15:10.380Z,12.60
2019-01-25T11:17:39.427Z,12.67
2019-01-25T11:20:11.458Z,12.83
2019-01-25T11:22:40.129Z,12.30
2019-01-25T11:25:12.691Z,12.57
2019-01-25T11:27:42.062Z,12.83
2019-01-25T11:30:12.718Z,16.07
2019-01-25T11:32:42.170Z,13.30
2019-01-25T11:35:11.135Z,12.30
2019-01-25T11:37:39.904Z,13.53
2019-01-25T11:40:14.817Z,11.00
2019-01-25T11:42:43.499Z,11.67
2019-01-25T11:45:12.333Z,12.67
2019-01-25T11:47:41.084Z,12.20
2019-01-25T11:50:11.766Z,12.20
2019-01-25T11:52:40.754Z,12.07
2019-01-25T11:55:09.831Z,12.60
2019-01-25T11:57:38.541Z,12.70
2019-01-25T12:00:19.350Z,13.27
2019-01-25T12:02:48.127Z,12.03
2019-01-25T12:05:18.045Z,13.07
2019-01-25T12:07:46.934Z,15.47
2019-01-25T12:10:16.438Z,13.77
2019-01-25T12:12:45.241Z,14.23
2019-01-25T12:15:15.658Z,15.20
2019-01-25T12:17:44.672Z,14.17
2019-01-25T12:20:16.312Z,14.93
2019-01-25T12:22:45.127Z,14.70
2019-01-25T12:25:14.376Z,18.90
2019-01-25T12:27:43.042Z,14.70
2019-01-25T12:30:15.915Z,12.90
2019-01-25T12:32:44.734Z,12.60
2019-01-25T12:35:13.604Z,13.10
2019-01-25T12:37:53.211Z,14.03
2019-01-25T12:40:22.351Z,14.23
2019-01-25T12:42:51.198Z,14.20
2019-01-25T12:45:22.267Z,14.47
2019-01-25T12:47:50.926Z,14.93
2019-01-25T12:50:25.383Z,14.27
2019-01-25T12:52:54.261Z,14.57
2019-01-25T12:55:23.996Z,15.23
2019-01-25T12:57:53.550Z,14.17
2019-01-25T13:00:25.207Z,13.70
2019-01-25T13:02:54.349Z,15.20
2019-01-25T13:05:23.743Z,13.60
2019-01-25T13:07:53.313Z,15.57
2019-01-25T13:10:22.595Z,11.40
2019-01-25T13:12:51.424Z,14.70
2019-01-25T13:15:20.261Z,15.77
2019-01-25T13:17:49.183Z,14.97
2019-01-25T13:20:22.848Z,13.77
2019-01-25T13:22:51.983Z,15.30
2019-01-25T13:25:21.003Z,15.60
2019-01-25T13:27:49.762Z,14.37
2019-01-25T13:30:24.523Z,11.03
2019-01-25T13:32:53.293Z,14.10
2019-01-25T13:35:22.211Z,15.20
2019-01-25T13:37:51.211Z,14.83
2019-01-25T13:40:21.103Z,17.23
2019-01-25T13:42:50.029Z,15.53
2019-01-25T13:45:19.422Z,17.27
2019-01-25T13:47:48.870Z,14.77
2019-01-25T13:50:25.072Z,15.83
2019-01-25T13:52:53.814Z,16.43
2019-01-25T13:55:29.439Z,17.30
2019-01-25T13:57:57.827Z,16.33
2019-01-25T14:00:28.658Z,17.43
2019-01-25T14:02:57.703Z,15.63
2019-01-25T14:05:26.796Z,14.73
2019-01-25T14:07:55.965Z,18.90
2019-01-25T14:10:30.791Z,16.90
2019-01-25T14:13:02.523Z,15.07
2019-01-25T14:15:33.682Z,18.83
2019-01-25T14:18:05.123Z,19.10
2019-01-25T14:20:34.173Z,14.93
2019-01-25T14:23:06.162Z,15.07
2019-01-25T14:25:37.747Z,16.43
2019-01-25T14:28:06.539Z,15.93
2019-01-25T14:30:37.411Z,14.77
2019-01-25T14:33:06.895Z,17.07
2019-01-25T14:35:36.224Z,15.50
2019-01-25T14:38:06.325Z,16.73
2019-01-25T14:40:35.187Z,15.30
2019-01-25T14:43:03.909Z,15.77
2019-01-25T14:45:32.687Z,16.63
2019-01-25T14:48:01.611Z,15.13
2019-01-25T14:50:31.164Z,16.43
2019-01-25T14:53:00.151Z,17.27
2019-01-25T14:55:29.001Z,14.40
2019-01-25T14:57:57.796Z,15.43
2019-01-25T15:00:26.653Z,17.47
2019-01-25T15:02:55.376Z,18.63
2019-01-25T15:05:24.511Z,18.73
2019-01-25T15:07:53.515Z,16.67
2019-01-25T15:10:23.706Z,18.10
2019-01-25T15:12:56.188Z,17.90
2019-01-25T15:15:25.459Z,19.73
2019-01-25T15:17:54.286Z,17.70
2019-01-25T15:20:26.628Z,15.07
2019-01-25T15:22:55.535Z,16.63
2019-01-25T15:25:24.686Z,16.73
2019-01-25T15:27:53.587Z,17.33
2019-01-25T15:30:32.903Z,16.57
2019-01-25T15:33:01.831Z,18.63
2019-01-25T15:35:30.825Z,15.90
2019-01-25T15:37:59.838Z,18.63
2019-01-25T15:40:28.715Z,16.40
2019-01-25T15:42:58.327Z,16.13
2019-01-25T15:45:28.479Z,15.00
2019-01-25T15:48:00.161Z,14.57
2019-01-25T15:50:31.123Z,15.20
2019-01-25T15:52:59.947Z,15.03
2019-01-25T15:55:29.084Z,14.77
2019-01-25T15:57:57.774Z,14.67
2019-01-25T16:00:28.094Z,15.73
2019-01-25T16:03:00.215Z,15.17
2019-01-25T16:05:29.002Z,15.87
2019-01-25T16:07:58.007Z,15.37
2019-01-25T16:10:27.053Z,15.30
2019-01-25T16:12:56.553Z,15.43
2019-01-25T16:15:28.161Z,14.83
2019-01-25T16:17:57.216Z,15.13
2019-01-25T16:20:25.987Z,16.07
2019-01-25T16:22:55.034Z,15.77
2019-01-25T16:25:26.608Z,17.47
2019-01-25T16:27:55.345Z,17.93
2019-01-25T16:30:28.945Z,15.53
2019-01-25T16:32:57.790Z,14.70
2019-01-25T16:35:26.835Z,15.63
2019-01-25T16:37:55.742Z,16.97
2019-01-25T16:40:25.112Z,15.17
2019-01-25T16:42:54.326Z,14.67
2019-01-25T16:45:25.466Z,15.53
2019-01-25T16:47:55.279Z,18.07
2019-01-25T16:50:24.242Z,18.13
2019-01-25T16:52:54.581Z,16.27
2019-01-25T16:55:24.239Z,17.70
2019-01-25T16:57:53.614Z,16.83
2019-01-25T17:00:30.613Z,14.37
2019-01-25T17:02:59.393Z,17.10
2019-01-25T17:05:28.239Z,19.83
2019-01-25T17:07:56.959Z,18.00
2019-01-25T17:10:25.833Z,16.60
2019-01-25T17:12:54.685Z,17.80
2019-01-25T17:15:23.543Z,15.63
2019-01-25T17:17:52.457Z,18.13
2019-01-25T17:20:21.737Z,17.17
2019-01-25T17:22:50.494Z,16.93
2019-01-25T17:25:19.252Z,19.87
2019-01-25T17:27:48.612Z,16.67
2019-01-25T17:30:22.829Z,15.17
2019-01-25T17:32:51.997Z,16.80
2019-01-25T17:35:20.785Z,18.30
2019-01-25T17:37:49.608Z,18.20
2019-01-25T17:40:22.558Z,17.97
2019-01-25T17:42:51.333Z,18.60
2019-01-25T17:45:20.648Z,19.83
2019-01-25T17:47:49.432Z,18.13
2019-01-25T17:50:18.311Z,15.93
2019-01-25T17:52:47.076Z,19.67
2019-01-25T17:55:15.978Z,20.27
2019-01-25T17:57:44.845Z,17.60
2019-01-25T18:00:26.688Z,17.93
2019-01-25T18:02:55.427Z,16.83
2019-01-25T18:05:24.381Z,19.40
2019-01-25T18:07:53.482Z,19.77
2019-01-25T18:10:22.544Z,17.17
2019-01-25T18:12:54.931Z,19.90
2019-01-25T18:15:24.030Z,20.33
2019-01-25T18:17:54.687Z,18.77
2019-01-25T18:20:26.141Z,17.33
2019-01-25T18:22:54.910Z,17.33
2019-01-25T18:25:30.793Z,18.07
2019-01-25T18:28:01.345Z,18.57
2019-01-25T18:30:52.076Z,21.23
2019-01-25T18:33:20.875Z,15.23
2019-01-25T18:35:49.576Z,18.80
2019-01-25T18:38:18.272Z,19.00
2019-01-25T18:40:47.073Z,16.47
2019-01-25T18:43:15.781Z,18.90
2019-01-25T18:45:44.522Z,17.40
2019-01-25T18:48:13.310Z,18.53
2019-01-25T18:50:42.107Z,19.47
2019-01-25T18:53:11.110Z,14.73
2019-01-25T18:55:40.053Z,19.17
2019-01-25T18:58:09.106Z,16.30
2019-01-25T19:00:43.721Z,17.57
2019-01-25T19:03:12.490Z,16.57
2019-01-25T19:05:41.465Z,19.40
2019-01-25T19:08:10.206Z,18.07
2019-01-25T19:10:39.133Z,19.40
2019-01-25T19:13:08.367Z,18.93
2019-01-25T19:15:37.115Z,18.80
2019-01-25T19:18:05.941Z,16.20
2019-01-25T19:20:34.689Z,19.37
2019-01-25T19:23:04.809Z,19.57
2019-01-25T19:25:33.603Z,21.13
2019-01-25T19:28:02.326Z,19.87
2019-01-25T19:30:33.581Z,15.77
2019-01-25T19:33:02.491Z,17.77
2019-01-25T19:35:31.188Z,12.53
2019-01-25T19:38:00.191Z,17.50
2019-01-25T19:40:30.353Z,17.23
2019-01-25T19:42:59.933Z,14.57
2019-01-25T19:45:29.045Z,14.60
2019-01-25T19:47:58.147Z,14.73
2019-01-25T19:50:27.317Z,12.77
2019-01-25T19:52:56.181Z,13.93
2019-01-25T19:55:26.392Z,13.37
2019-01-25T19:57:55.730Z,10.03
2019-01-25T20:00:26.972Z,12.03
2019-01-25T20:02:55.929Z,16.10
2019-01-25T20:05:25.610Z,10.20
2019-01-25T20:07:54.530Z,9.17
2019-01-25T20:10:23.534Z,11.17
2019-01-25T20:12:52.275Z,11.60
2019-01-25T20:15:21.131Z,10.87
2019-01-25T20:17:50.009Z,12.23
2019-01-25T20:20:20.986Z,12.20
2019-01-25T20:22:49.822Z,10.13
2019-01-25T20:25:18.949Z,12.43
2019-01-25T20:27:47.802Z,13.33
2019-01-25T20:30:22.728Z,12.10
2019-01-25T20:32:57.674Z,12.47
2019-01-25T20:35:31.791Z,11.07
2019-01-25T20:38:00.835Z,10.70
2019-01-25T20:40:30.598Z,10.87
2019-01-25T20:43:00.209Z,13.80
2019-01-25T20:45:31.293Z,9.70
2019-01-25T20:48:00.306Z,10.57
2019-01-25T20:50:29.979Z,8.57
2019-01-25T20:52:59.125Z,9.47
2019-01-25T20:55:27.906Z,11.57
2019-01-25T20:57:58.042Z,12.27
2019-01-25T21:00:35.147Z,13.67
2019-01-25T21:03:09.474Z,11.93
2019-01-25T21:05:38.200Z,12.00
2019-01-25T21:08:07.239Z,12.88
2019-01-25T21:10:35.945Z,12.47
2019-01-25T21:13:05.468Z,11.73
2019-01-25T21:15:35.381Z,12.80
2019-01-25T21:18:04.915Z,12.07
2019-01-25T21:20:36.178Z,11.93
2019-01-25T21:23:05.678Z,12.83
2019-01-25T21:25:35.030Z,13.27
2019-01-25T21:28:04.402Z,9.83
2019-01-25T21:30:33.867Z,12.00
2019-01-25T21:33:02.846Z,11.20
2019-01-25T21:35:31.715Z,12.60
2019-01-25T21:38:00.394Z,11.90
2019-01-25T21:40:30.771Z,11.60
2019-01-25T21:42:59.702Z,11.30
2019-01-25T21:45:30.414Z,10.17
2019-01-25T21:47:59.391Z,12.30
2019-01-25T21:50:30.523Z,11.40
2019-01-25T21:52:59.362Z,11.23
2019-01-25T21:55:28.456Z,11.70
2019-01-25T21:57:57.399Z,10.97
2019-01-25T22:00:28.386Z,13.27
2019-01-25T22:02:57.323Z,13.13
2019-01-25T22:05:26.150Z,10.63
2019-01-25T22:07:54.927Z,11.13
2019-01-25T22:10:26.672Z,12.23
2019-01-25T22:12:55.519Z,14.33
2019-01-25T22:15:24.335Z,11.80
2019-01-25T22:17:53.903Z,10.37
2019-01-25T22:20:24.431Z,11.37
2019-01-25T22:22:53.185Z,10.60
2019-01-25T22:25:22.321Z,13.13
2019-01-25T22:27:52.262Z,10.70
2019-01-25T22:30:22.621Z,11.57
2019-01-25T22:32:51.551Z,11.17
2019-01-25T22:35:20.319Z,12.80
2019-01-25T22:37:50.246Z,11.77
2019-01-25T22:40:21.442Z,12.70
2019-01-25T22:42:50.268Z,11.90
2019-01-25T22:45:20.676Z,11.70
2019-01-25T22:47:49.587Z,13.10
2019-01-25T22:50:20.765Z,12.07
2019-01-25T22:52:49.538Z,13.00
2019-01-25T22:55:18.554Z,13.17
2019-01-25T22:57:47.455Z,11.43
2019-01-25T23:00:47.299Z,13.27
2019-01-25T23:03:17.174Z,12.77
2019-01-25T23:06:06.852Z,13.30
2019-01-25T23:08:35.910Z,12.60
2019-01-25T23:11:04.919Z,12.63
2019-01-25T23:13:33.739Z,12.23
2019-01-25T23:16:06.457Z,17.23
2019-01-25T23:18:32.871Z,15.33
2019-01-25T23:21:01.811Z,11.77
2019-01-25T23:23:31.087Z,11.47
2019-01-25T23:26:00.170Z,13.63
2019-01-25T23:28:29.107Z,15.60
2019-01-25T23:30:57.882Z,14.20
2019-01-25T23:33:27.869Z,15.53
2019-01-25T23:35:57.059Z,13.27
2019-01-25T23:38:25.751Z,13.43
2019-01-25T23:40:54.492Z,14.97
2019-01-25T23:43:23.333Z,14.00
2019-01-25T23:45:52.034Z,15.40
2019-01-25T23:48:20.711Z,15.38
2019-01-25T23:50:49.431Z,13.43
2019-01-25T23:53:18.185Z,13.80
2019-01-25T23:55:46.888Z,14.30
2019-01-25T23:58:15.954Z,7.37
